createdAt,value
2023-01-17T00:00:21.822Z,4.95
2023-01-17T00:02:26.482Z,3.90
2023-01-17T00:04:47.111Z,5.13
2023-01-17T00:07:12.927Z,4.53
2023-01-17T00:09:33.729Z,4.05
2023-01-17T00:11:41.037Z,4.38
2023-01-17T00:13:42.666Z,3.60
2023-01-17T00:15:44.166Z,3.97
2023-01-17T00:17:46.180Z,4.97
2023-01-17T00:20:12.656Z,4.90
2023-01-17T00:22:42.869Z,5.35
2023-01-17T00:25:05.451Z,4.30
2023-01-17T00:27:12.912Z,5.15
2023-01-17T00:29:14.401Z,5.45
2023-01-17T00:31:16.588Z,5.60
2023-01-17T00:33:18.273Z,4.97
2023-01-17T00:35:20.750Z,5.63
2023-01-17T00:37:24.954Z,5.05
2023-01-17T00:39:26.339Z,5.60
2023-01-17T00:41:33.679Z,6.60
2023-01-17T00:43:53.604Z,6.05
2023-01-17T00:46:16.784Z,4.35
2023-01-17T00:48:37.138Z,6.20
2023-01-17T00:51:02.850Z,6.93
2023-01-17T00:53:28.535Z,5.75
2023-01-17T00:55:48.725Z,5.75
2023-01-17T00:58:14.574Z,5.82
2023-01-17T01:00:36.992Z,5.18
2023-01-17T01:02:57.436Z,6.50
2023-01-17T01:05:23.527Z,5.40
2023-01-17T01:07:47.098Z,6.28
2023-01-17T01:10:20.311Z,6.32
2023-01-17T01:12:50.931Z,7.43
2023-01-17T01:15:19.556Z,6.38
2023-01-17T01:17:45.837Z,7.40
2023-01-17T01:20:19.661Z,7.25
2023-01-17T01:22:51.930Z,6.57
2023-01-17T01:25:26.405Z,6.47
2023-01-17T01:28:01.670Z,7.40
2023-01-17T01:30:30.815Z,6.57
2023-01-17T01:33:04.350Z,6.05
2023-01-17T01:35:19.287Z,7.70
2023-01-17T01:37:37.429Z,5.95
2023-01-17T01:39:42.910Z,4.65
2023-01-17T01:41:44.592Z,4.80
2023-01-17T01:43:47.722Z,4.97
2023-01-17T01:45:52.702Z,7.18
2023-01-17T01:48:17.805Z,6.13
2023-01-17T01:50:20.103Z,6.68
2023-01-17T01:52:29.544Z,7.43
2023-01-17T01:54:33.989Z,6.72
2023-01-17T01:56:36.437Z,7.50
2023-01-17T01:58:43.834Z,5.22
2023-01-17T02:00:45.498Z,6.63
2023-01-17T02:02:50.008Z,5.00
2023-01-17T02:04:51.944Z,4.72
2023-01-17T02:07:00.364Z,6.38
2023-01-17T02:09:03.668Z,5.95
2023-01-17T02:11:05.440Z,6.70
2023-01-17T02:13:10.815Z,7.82
2023-01-17T02:15:18.477Z,5.38
2023-01-17T02:17:22.641Z,5.40
2023-01-17T02:19:56.352Z,5.82
2023-01-17T02:21:57.809Z,5.10
2023-01-17T02:23:59.254Z,5.78
2023-01-17T02:26:12.118Z,5.72
2023-01-17T02:28:13.608Z,6.25
2023-01-17T02:30:18.669Z,5.70
2023-01-17T02:32:46.584Z,5.00
2023-01-17T02:34:56.883Z,6.22
2023-01-17T02:37:25.328Z,4.78
2023-01-17T02:39:36.962Z,5.20
2023-01-17T02:41:42.971Z,5.57
2023-01-17T02:43:44.690Z,5.80
2023-01-17T02:45:49.060Z,6.57
2023-01-17T02:47:50.577Z,7.95
2023-01-17T02:50:01.470Z,5.90
2023-01-17T02:52:15.124Z,7.80
2023-01-17T02:54:35.591Z,6.57
2023-01-17T02:56:39.785Z,6.50
2023-01-17T03:00:53.511Z,5.78
2023-01-17T03:02:58.868Z,6.20
2023-01-17T03:05:09.428Z,5.53
2023-01-17T03:07:22.598Z,4.63
2023-01-17T03:09:25.604Z,6.30
2023-01-17T03:11:33.167Z,4.38
2023-01-17T03:13:34.713Z,6.75
2023-01-17T03:15:36.259Z,5.90
2023-01-17T03:17:39.015Z,5.93
2023-01-17T03:19:40.530Z,4.63
2023-01-17T03:21:42.316Z,4.93
2023-01-17T03:23:49.876Z,6.00
2023-01-17T03:25:51.306Z,5.65
2023-01-17T03:30:00.008Z,5.55
2023-01-17T03:32:07.639Z,4.60
2023-01-17T03:34:09.210Z,5.78
2023-01-17T03:36:12.083Z,5.25
2023-01-17T03:38:16.300Z,5.78
2023-01-17T03:40:17.812Z,5.10
2023-01-17T03:42:19.330Z,5.88
2023-01-17T03:44:20.989Z,6.78
2023-01-17T03:46:28.669Z,6.18
2023-01-17T03:48:30.400Z,6.63
2023-01-17T03:50:34.954Z,5.80
2023-01-17T03:52:39.588Z,6.80
2023-01-17T03:54:43.866Z,5.78
2023-01-17T03:56:48.297Z,5.45
2023-01-17T04:00:53.983Z,5.50
2023-01-17T04:02:55.547Z,5.72
2023-01-17T04:07:04.033Z,6.40
2023-01-17T04:09:05.603Z,5.88
2023-01-17T04:11:07.159Z,4.55
2023-01-17T04:13:14.825Z,7.45
2023-01-17T04:15:26.716Z,6.07
2023-01-17T04:17:43.874Z,4.90
2023-01-17T04:19:59.664Z,4.25
2023-01-17T04:22:11.746Z,6.05
2023-01-17T04:24:22.070Z,5.13
2023-01-17T04:26:34.441Z,5.97
2023-01-17T04:28:48.353Z,5.00
2023-01-17T04:30:58.784Z,5.18
2023-01-17T04:33:09.949Z,4.07
2023-01-17T04:35:23.067Z,5.78
2023-01-17T04:37:37.593Z,5.03
2023-01-17T04:39:47.825Z,5.05
2023-01-17T04:41:59.778Z,5.45
2023-01-17T04:44:05.459Z,6.15
2023-01-17T04:48:15.339Z,5.65
2023-01-17T04:50:17.044Z,6.53
2023-01-17T04:52:21.582Z,6.28
2023-01-17T04:54:28.969Z,6.30
2023-01-17T04:56:33.580Z,7.00
2023-01-17T05:00:38.974Z,7.40
2023-01-17T05:02:43.315Z,5.72
2023-01-17T05:04:44.799Z,6.20
2023-01-17T05:06:48.954Z,5.72
2023-01-17T05:08:50.617Z,6.70
2023-01-17T05:10:57.812Z,5.53
2023-01-17T05:12:59.707Z,5.50
2023-01-17T05:15:01.158Z,5.85
2023-01-17T05:17:05.324Z,5.68
2023-01-17T05:21:16.813Z,5.85
2023-01-17T05:23:18.323Z,5.25
2023-01-17T05:25:24.159Z,5.20
2023-01-17T05:27:29.605Z,5.55
2023-01-17T05:29:34.082Z,4.72
2023-01-17T05:31:35.593Z,4.53
2023-01-17T05:35:41.128Z,4.45
2023-01-17T05:37:49.040Z,4.75
2023-01-17T05:39:53.419Z,3.72
2023-01-17T05:41:57.714Z,3.58
2023-01-17T05:43:59.211Z,3.70
2023-01-17T05:48:08.005Z,3.53
2023-01-17T05:50:13.280Z,3.25
2023-01-17T05:52:17.404Z,4.18
2023-01-17T05:54:21.819Z,3.65
2023-01-17T05:56:23.382Z,4.63
2023-01-17T05:58:27.643Z,4.13
2023-01-17T06:00:29.500Z,4.25
2023-01-17T06:02:30.946Z,4.35
2023-01-17T06:04:38.566Z,4.35
2023-01-17T06:06:42.736Z,4.30
2023-01-17T06:08:47.312Z,4.53
2023-01-17T06:10:48.921Z,4.28
2023-01-17T06:12:50.935Z,4.70
2023-01-17T06:14:55.238Z,4.15
2023-01-17T06:16:59.528Z,4.03
2023-01-17T06:19:04.090Z,4.25
2023-01-17T06:21:11.591Z,3.70
2023-01-17T06:23:14.135Z,4.57
2023-01-17T06:25:15.730Z,3.22
2023-01-17T06:27:20.244Z,3.58
2023-01-17T06:29:21.748Z,3.63
2023-01-17T06:31:23.274Z,3.70
2023-01-17T06:33:24.803Z,4.65
2023-01-17T06:35:29.546Z,3.30
2023-01-17T06:37:31.035Z,3.08
2023-01-17T06:41:39.334Z,4.05
2023-01-17T06:43:40.757Z,3.17
2023-01-17T06:45:45.344Z,3.15
2023-01-17T06:47:46.907Z,3.15
2023-01-17T06:49:48.409Z,3.22
2023-01-17T06:51:49.982Z,4.18
2023-01-17T06:53:54.589Z,4.03
2023-01-17T06:55:57.678Z,3.42
2023-01-17T06:57:59.789Z,3.70
2023-01-17T07:00:04.542Z,3.60
2023-01-17T07:02:10.176Z,3.67
2023-01-17T07:04:11.672Z,4.18
2023-01-17T07:06:16.009Z,3.78
2023-01-17T07:08:18.107Z,3.33
2023-01-17T07:10:19.594Z,3.67
2023-01-17T07:12:24.062Z,3.08
2023-01-17T07:14:25.496Z,3.13
2023-01-17T07:16:30.346Z,2.42
2023-01-17T07:18:35.229Z,3.30
2023-01-17T07:20:47.306Z,3.15
2023-01-17T07:22:56.570Z,3.08
2023-01-17T07:25:06.636Z,2.83
2023-01-17T07:27:16.931Z,3.10
2023-01-17T07:29:27.456Z,3.45
2023-01-17T07:31:39.075Z,3.15
2023-01-17T07:33:49.786Z,3.72
2023-01-17T07:35:59.842Z,2.92
2023-01-17T07:38:15.046Z,3.38
2023-01-17T07:40:27.125Z,2.60
2023-01-17T07:42:39.279Z,2.45
2023-01-17T07:44:53.354Z,2.90
2023-01-17T07:47:03.795Z,2.90
2023-01-17T07:49:10.634Z,2.55
2023-01-17T07:51:18.329Z,3.17
2023-01-17T07:53:27.025Z,2.88
2023-01-17T07:55:31.562Z,3.75
2023-01-17T07:57:35.951Z,3.47
2023-01-17T07:59:37.425Z,3.28
2023-01-17T08:01:42.221Z,2.47
2023-01-17T08:03:46.553Z,2.75
2023-01-17T08:05:57.559Z,3.40
2023-01-17T08:07:59.073Z,2.53
2023-01-17T08:10:01.547Z,3.33
2023-01-17T08:12:03.100Z,3.55
2023-01-17T08:14:05.058Z,3.72
2023-01-17T08:16:06.945Z,3.65
2023-01-17T08:18:11.631Z,2.88
2023-01-17T08:20:19.651Z,3.30
2023-01-17T08:22:21.301Z,3.38
2023-01-17T08:24:22.870Z,2.90
2023-01-17T08:26:27.445Z,2.85
2023-01-17T08:30:33.366Z,3.17
2023-01-17T08:32:34.985Z,2.58
2023-01-17T08:34:36.615Z,2.25
2023-01-17T08:36:38.093Z,2.70
2023-01-17T08:38:42.589Z,1.85
2023-01-17T08:40:44.425Z,2.22
2023-01-17T08:42:53.878Z,2.95
2023-01-17T08:45:01.377Z,2.40
2023-01-17T08:47:02.963Z,3.00
2023-01-17T08:49:04.443Z,3.22
2023-01-17T08:51:07.337Z,3.42
2023-01-17T08:53:08.938Z,3.20
2023-01-17T08:55:11.664Z,2.95
2023-01-17T08:57:13.209Z,3.40
2023-01-17T08:59:14.811Z,3.50
2023-01-17T09:01:22.286Z,3.55
2023-01-17T09:05:34.069Z,3.95
2023-01-17T09:07:38.629Z,3.42
2023-01-17T09:09:43.186Z,2.90
2023-01-17T09:11:44.755Z,4.35
2023-01-17T09:13:51.918Z,4.63
2023-01-17T09:15:56.464Z,3.58
2023-01-17T09:18:01.617Z,4.43
2023-01-17T09:20:03.150Z,3.35
2023-01-17T09:22:05.459Z,3.38
2023-01-17T09:24:10.039Z,3.92
2023-01-17T09:28:15.733Z,4.65
2023-01-17T09:30:23.921Z,4.22
2023-01-17T09:32:28.084Z,3.85
2023-01-17T09:34:30.535Z,3.65
2023-01-17T09:36:34.050Z,3.13
2023-01-17T09:38:36.119Z,3.20
2023-01-17T09:40:41.957Z,3.65
2023-01-17T09:42:43.673Z,4.35
2023-01-17T09:44:51.935Z,4.00
2023-01-17T09:46:55.807Z,3.97
2023-01-17T09:49:03.359Z,3.90
2023-01-17T09:51:14.560Z,3.23
2023-01-17T09:53:22.551Z,3.97
2023-01-17T09:55:24.295Z,3.55
2023-01-17T09:57:34.992Z,2.85
2023-01-17T10:00:03.253Z,3.22
2023-01-17T10:02:11.045Z,2.10
2023-01-17T10:04:18.732Z,3.00
2023-01-17T10:06:40.499Z,4.25
2023-01-17T10:08:53.910Z,5.60
2023-01-17T10:11:20.603Z,4.63
2023-01-17T10:13:32.566Z,6.82
2023-01-17T10:15:55.272Z,5.65
2023-01-17T10:17:56.714Z,7.32
2023-01-17T10:20:19.341Z,7.38
2023-01-17T10:22:42.292Z,7.32
2023-01-17T10:24:46.150Z,9.00
2023-01-17T10:26:53.945Z,12.25
2023-01-17T10:29:01.149Z,9.50
2023-01-17T10:31:09.686Z,10.07
2023-01-17T10:33:16.545Z,9.23
2023-01-17T10:35:30.492Z,8.57
2023-01-17T10:37:42.082Z,6.25
2023-01-17T10:39:50.235Z,6.30
2023-01-17T10:42:01.990Z,6.32
2023-01-17T10:44:15.437Z,6.57
2023-01-17T10:46:21.270Z,7.50
2023-01-17T10:48:31.246Z,6.20
2023-01-17T10:50:37.507Z,5.70
2023-01-17T10:52:58.686Z,6.10
2023-01-17T10:55:13.255Z,4.68
2023-01-17T10:57:19.791Z,5.43
2023-01-17T10:59:33.546Z,4.15
2023-01-17T11:01:35.513Z,4.18
2023-01-17T11:03:37.296Z,3.95
2023-01-17T11:05:41.425Z,4.25
2023-01-17T11:07:56.544Z,4.35
2023-01-17T11:10:00.785Z,3.20
2023-01-17T11:12:05.331Z,2.95
2023-01-17T11:14:18.439Z,3.05
2023-01-17T11:16:26.695Z,2.65
2023-01-17T11:18:31.715Z,2.38
2023-01-17T11:20:37.180Z,2.63
2023-01-17T11:22:38.762Z,2.00
2023-01-17T11:24:49.140Z,2.30
2023-01-17T11:26:57.207Z,2.00
2023-01-17T11:29:20.038Z,2.20
2023-01-17T11:31:27.548Z,1.95
2023-01-17T11:33:49.185Z,2.65
2023-01-17T11:35:56.755Z,2.33
2023-01-17T11:38:05.910Z,1.92
2023-01-17T11:40:21.233Z,2.50
2023-01-17T11:42:38.271Z,1.90
2023-01-17T11:44:45.899Z,2.20
2023-01-17T11:47:09.521Z,1.80
2023-01-17T11:49:24.738Z,1.77
2023-01-17T11:51:30.900Z,2.35
2023-01-17T11:53:34.341Z,2.10
2023-01-17T11:55:36.350Z,1.92
2023-01-17T11:57:37.856Z,2.03
2023-01-17T11:59:47.930Z,1.92
2023-01-17T12:01:49.860Z,2.47
2023-01-17T12:03:57.247Z,2.60
2023-01-17T12:06:12.355Z,1.92
2023-01-17T12:08:13.789Z,2.30
2023-01-17T12:10:27.646Z,2.08
2023-01-17T12:13:25.760Z,2.20
2023-01-17T12:15:36.035Z,2.67
2023-01-17T12:17:43.155Z,1.85
2023-01-17T12:22:28.744Z,1.90
2023-01-17T12:24:41.043Z,2.58
2023-01-17T12:26:44.044Z,2.30
2023-01-17T12:28:48.232Z,1.92
2023-01-17T12:31:08.284Z,2.53
2023-01-17T12:33:12.940Z,2.20
2023-01-17T12:35:27.091Z,2.10
2023-01-17T12:37:38.583Z,2.70
2023-01-17T12:39:43.389Z,2.22
2023-01-17T12:41:44.809Z,1.73
2023-01-17T12:43:46.570Z,1.70
2023-01-17T12:45:49.486Z,2.10
2023-01-17T12:47:58.583Z,1.67
2023-01-17T12:50:15.640Z,1.48
2023-01-17T12:52:17.090Z,1.33
2023-01-17T12:54:25.460Z,1.85
2023-01-17T12:56:35.626Z,1.52
2023-01-17T12:58:42.624Z,1.73
2023-01-17T13:00:51.325Z,1.77
2023-01-17T13:03:34.237Z,1.52
2023-01-17T13:05:55.412Z,1.40
2023-01-17T13:08:33.041Z,1.20
2023-01-17T13:10:54.524Z,1.23
2023-01-17T13:13:20.217Z,1.20
2023-01-17T13:15:26.370Z,1.00
2023-01-17T13:17:34.998Z,1.23
2023-01-17T13:19:36.420Z,1.48
2023-01-17T13:21:38.269Z,1.00
2023-01-17T13:23:51.851Z,1.10
2023-01-17T13:25:54.863Z,1.23
2023-01-17T13:28:04.803Z,1.30
2023-01-17T13:30:25.989Z,1.20
2023-01-17T13:33:07.323Z,1.30
2023-01-17T13:35:14.869Z,1.10
2023-01-17T13:37:31.931Z,1.20
2023-01-17T13:39:33.696Z,1.20
2023-01-17T13:41:38.049Z,1.35
2023-01-17T13:43:41.821Z,1.33
2023-01-17T13:45:55.659Z,1.30
2023-01-17T13:48:12.137Z,0.98
2023-01-17T13:50:32.692Z,1.20
2023-01-17T13:52:38.253Z,1.20
2023-01-17T13:54:44.775Z,1.13
2023-01-17T13:56:46.353Z,1.10
2023-01-17T13:58:49.979Z,1.50
2023-01-17T14:00:54.955Z,1.40
2023-01-17T14:02:56.654Z,0.95
2023-01-17T14:05:07.281Z,1.30
2023-01-17T14:07:19.852Z,1.27
2023-01-17T14:09:37.779Z,1.55
2023-01-17T14:11:50.769Z,1.30
2023-01-17T14:13:52.671Z,1.83
2023-01-17T14:16:00.338Z,1.90
2023-01-17T14:18:07.067Z,1.30
2023-01-17T14:20:16.126Z,1.67
2023-01-17T14:22:20.830Z,1.38
2023-01-17T14:24:59.511Z,1.00
2023-01-17T14:27:24.071Z,1.20
2023-01-17T14:29:44.386Z,1.20
2023-01-17T14:31:59.424Z,1.20
2023-01-17T14:34:11.248Z,1.63
2023-01-17T14:38:24.717Z,1.25
2023-01-17T14:40:33.028Z,1.10
2023-01-17T14:42:34.468Z,1.23
2023-01-17T14:44:35.892Z,1.00
2023-01-17T14:46:37.327Z,1.00
2023-01-17T14:48:41.963Z,1.63
2023-01-17T14:53:08.198Z,1.20
2023-01-17T14:55:17.339Z,1.27
2023-01-17T14:57:24.891Z,1.17
2023-01-17T14:59:29.216Z,1.80
2023-01-17T15:01:35.636Z,1.67
2023-01-17T15:03:49.000Z,1.83
2023-01-17T15:06:16.511Z,3.17
2023-01-17T15:08:19.702Z,1.55
2023-01-17T15:10:46.900Z,1.17
2023-01-17T15:12:52.305Z,1.85
2023-01-17T15:14:58.594Z,1.58
2023-01-17T15:17:29.003Z,1.33
2023-01-17T15:19:40.438Z,1.30
2023-01-17T15:22:00.904Z,1.73
2023-01-17T15:24:08.817Z,1.42
2023-01-17T15:26:12.650Z,1.42
2023-01-17T15:28:33.690Z,1.38
2023-01-17T15:30:35.172Z,1.05
2023-01-17T15:32:55.363Z,1.05
2023-01-17T15:35:02.513Z,1.13
2023-01-17T15:37:08.430Z,0.90
2023-01-17T15:39:35.901Z,1.02
2023-01-17T15:41:40.642Z,1.10
2023-01-17T15:43:45.217Z,1.00
2023-01-17T15:45:57.084Z,1.23
2023-01-17T15:48:19.777Z,1.60
2023-01-17T15:50:30.245Z,1.40
2023-01-17T15:52:46.962Z,0.98
2023-01-17T15:54:55.666Z,1.23
2023-01-17T15:57:03.202Z,1.58
2023-01-17T15:59:23.551Z,1.30
2023-01-17T16:01:52.188Z,1.70
2023-01-17T16:03:56.638Z,1.70
2023-01-17T16:06:01.243Z,1.52
2023-01-17T16:08:02.793Z,1.63
2023-01-17T16:10:18.575Z,1.40
2023-01-17T16:12:20.043Z,2.15
2023-01-17T16:14:21.444Z,1.85
2023-01-17T16:16:24.017Z,2.00
2023-01-17T16:18:25.910Z,2.13
2023-01-17T16:20:59.691Z,1.63
2023-01-17T16:23:01.853Z,2.10
2023-01-17T16:25:06.013Z,1.88
2023-01-17T16:27:13.682Z,1.92
2023-01-17T16:29:21.534Z,2.60
2023-01-17T16:31:23.155Z,3.25
2023-01-17T16:33:46.519Z,3.63
2023-01-17T16:35:56.668Z,3.17
2023-01-17T16:37:59.831Z,3.80
2023-01-17T16:40:07.042Z,4.32
2023-01-17T16:42:29.268Z,5.55
2023-01-17T16:44:38.110Z,5.07
2023-01-17T16:46:43.139Z,5.43
2023-01-17T16:48:49.371Z,6.75
2023-01-17T16:50:53.136Z,5.03
2023-01-17T16:52:59.233Z,8.88
2023-01-17T16:55:06.746Z,5.53
2023-01-17T16:57:09.772Z,5.53
2023-01-17T16:59:15.213Z,7.20
2023-01-17T17:01:25.676Z,5.70
2023-01-17T17:03:29.340Z,7.05
2023-01-17T17:05:35.754Z,5.80
2023-01-17T17:07:43.060Z,6.55
2023-01-17T17:09:45.134Z,5.78
2023-01-17T17:11:49.636Z,5.82
2023-01-17T17:13:54.163Z,6.32
2023-01-17T17:15:56.046Z,7.30
2023-01-17T17:18:00.660Z,7.03
2023-01-17T17:20:20.668Z,7.78
2023-01-17T17:22:22.172Z,6.60
2023-01-17T17:24:42.087Z,6.70
2023-01-17T17:26:44.159Z,6.47
2023-01-17T17:29:05.022Z,6.22
2023-01-17T17:31:08.680Z,6.32
2023-01-17T17:33:12.991Z,7.20
2023-01-17T17:35:14.598Z,6.80
2023-01-17T17:37:18.977Z,6.38
2023-01-17T17:39:20.504Z,6.78
2023-01-17T17:41:28.724Z,6.32
2023-01-17T17:43:30.147Z,5.75
2023-01-17T17:45:31.536Z,6.28
2023-01-17T17:49:39.975Z,7.27
2023-01-17T17:53:52.954Z,7.28
2023-01-17T17:56:02.257Z,6.22
2023-01-17T17:58:03.832Z,8.85
2023-01-17T18:00:14.387Z,7.22
2023-01-17T18:02:16.445Z,7.88
2023-01-17T18:04:37.100Z,6.90
2023-01-17T18:06:44.571Z,7.38
2023-01-17T18:08:49.211Z,6.28
2023-01-17T18:10:57.395Z,6.90
2023-01-17T18:13:17.355Z,6.57
2023-01-17T18:15:20.761Z,4.65
2023-01-17T18:17:22.240Z,7.82
2023-01-17T18:19:24.792Z,5.03
2023-01-17T18:21:31.091Z,5.82
2023-01-17T18:23:32.566Z,5.03
2023-01-17T18:25:36.774Z,4.88
2023-01-17T18:30:02.659Z,5.40
2023-01-17T18:32:07.102Z,4.57
2023-01-17T18:34:10.133Z,5.22
2023-01-17T18:36:14.267Z,4.97
2023-01-17T18:40:19.952Z,5.68
2023-01-17T18:42:23.436Z,5.72
2023-01-17T18:44:27.958Z,5.10
2023-01-17T18:46:32.850Z,4.90
2023-01-17T18:48:55.263Z,5.10
2023-01-17T18:51:00.756Z,5.82
2023-01-17T18:53:04.891Z,5.53
2023-01-17T18:55:06.447Z,5.55
2023-01-17T18:57:07.925Z,6.75
2023-01-17T19:01:15.053Z,5.05
2023-01-17T19:03:20.872Z,5.80
2023-01-17T19:05:22.392Z,6.18
2023-01-17T19:07:29.099Z,6.22
2023-01-17T19:09:33.307Z,6.55
2023-01-17T19:11:38.070Z,6.90
2023-01-17T19:13:45.497Z,6.13
2023-01-17T19:15:49.771Z,6.30
2023-01-17T19:17:54.461Z,6.57
2023-01-17T19:19:57.178Z,5.40
2023-01-17T19:21:58.685Z,5.80
2023-01-17T19:24:03.507Z,7.82
2023-01-17T19:26:08.636Z,7.15
2023-01-17T19:28:13.185Z,7.30
2023-01-17T19:30:17.781Z,5.05
2023-01-17T19:32:22.114Z,6.10
2023-01-17T19:34:26.582Z,5.53
2023-01-17T19:36:33.723Z,5.95
2023-01-17T19:38:36.162Z,5.10
2023-01-17T19:40:39.915Z,5.47
2023-01-17T19:42:48.331Z,4.80
2023-01-17T19:45:00.705Z,5.35
2023-01-17T19:47:10.145Z,6.38
2023-01-17T19:49:21.380Z,4.25
2023-01-17T19:51:29.390Z,6.77
2023-01-17T19:53:39.697Z,5.78
2023-01-17T19:55:50.208Z,5.32
2023-01-17T19:58:00.034Z,5.38
2023-01-17T20:00:17.298Z,5.68
2023-01-17T20:02:34.215Z,5.28
2023-01-17T20:04:44.090Z,5.53
2023-01-17T20:06:52.287Z,6.55
2023-01-17T20:08:58.527Z,5.93
2023-01-17T20:11:12.041Z,6.28
2023-01-17T20:13:15.387Z,5.80
2023-01-17T20:15:17.019Z,8.30
2023-01-17T20:17:18.561Z,6.32
2023-01-17T20:19:25.663Z,5.88
2023-01-17T20:21:27.706Z,5.60
2023-01-17T20:23:35.816Z,5.60
2023-01-17T20:25:51.847Z,7.03
2023-01-17T20:27:53.343Z,5.35
2023-01-17T20:29:54.995Z,5.60
2023-01-17T20:31:59.443Z,5.07
2023-01-17T20:34:00.957Z,5.30
2023-01-17T20:36:10.645Z,5.53
2023-01-17T20:38:12.468Z,6.15
2023-01-17T20:40:17.536Z,6.05
2023-01-17T20:42:19.021Z,6.40
2023-01-17T20:46:29.233Z,5.72
2023-01-17T20:48:36.635Z,6.07
2023-01-17T20:50:38.113Z,5.82
2023-01-17T20:52:42.359Z,6.80
2023-01-17T20:54:43.819Z,5.78
2023-01-17T20:56:47.486Z,5.63
2023-01-17T20:58:51.656Z,5.47
2023-01-17T21:01:13.087Z,5.57
2023-01-17T21:03:17.774Z,5.75
2023-01-17T21:05:22.062Z,5.60
2023-01-17T21:09:27.691Z,4.72
2023-01-17T21:11:29.179Z,4.85
2023-01-17T21:13:31.788Z,6.40
2023-01-17T21:15:41.366Z,4.93
2023-01-17T21:17:44.467Z,4.75
2023-01-17T21:19:46.138Z,4.55
2023-01-17T21:21:51.189Z,5.35
2023-01-17T21:23:59.314Z,5.10
2023-01-17T21:26:20.271Z,6.13
2023-01-17T21:28:22.293Z,6.78
2023-01-17T21:30:23.885Z,6.60
2023-01-17T21:32:29.715Z,7.38
2023-01-17T21:34:32.698Z,7.22
2023-01-17T21:36:38.429Z,7.18
2023-01-17T21:38:43.043Z,8.02
2023-01-17T21:40:47.563Z,7.03
2023-01-17T21:42:52.776Z,7.65
2023-01-17T21:45:13.292Z,7.43
2023-01-17T21:47:18.008Z,7.22
2023-01-17T21:49:22.256Z,7.40
2023-01-17T21:51:24.450Z,7.75
2023-01-17T21:53:27.684Z,8.30
2023-01-17T21:55:50.318Z,8.75
2023-01-17T21:58:32.739Z,7.60
2023-01-17T22:00:37.029Z,7.55
2023-01-17T22:02:41.906Z,8.02
2023-01-17T22:04:49.402Z,7.18
2023-01-17T22:06:53.885Z,7.57
2023-01-17T22:08:56.142Z,7.10
2023-01-17T22:11:04.573Z,6.88
2023-01-17T22:13:06.015Z,6.95
2023-01-17T22:17:21.095Z,7.45
2023-01-17T22:19:22.600Z,7.50
2023-01-17T22:21:30.100Z,5.88
2023-01-17T22:23:31.561Z,7.55
2023-01-17T22:25:33.528Z,5.97
2023-01-17T22:27:35.240Z,7.32
2023-01-17T22:29:39.556Z,6.72
2023-01-17T22:31:41.080Z,5.30
2023-01-17T22:34:02.642Z,5.35
2023-01-17T22:36:04.752Z,5.45
2023-01-17T22:38:24.857Z,5.65
2023-01-17T22:40:27.876Z,5.88
2023-01-17T22:42:35.378Z,7.13
2023-01-17T22:44:36.864Z,5.80
2023-01-17T22:48:52.037Z,5.60
2023-01-17T22:51:18.133Z,7.15
2023-01-17T22:53:22.405Z,7.15
2023-01-17T22:55:50.191Z,6.38
2023-01-17T22:58:02.847Z,7.22
2023-01-17T23:00:18.624Z,7.30
2023-01-17T23:02:23.304Z,5.90
2023-01-17T23:04:45.912Z,5.57
2023-01-17T23:06:54.552Z,6.65
2023-01-17T23:09:05.885Z,5.13
2023-01-17T23:11:45.723Z,4.93
2023-01-17T23:14:02.654Z,3.50
2023-01-17T23:16:32.341Z,3.20
2023-01-17T23:18:53.481Z,3.53
2023-01-17T23:20:57.841Z,3.60
2023-01-17T23:23:17.747Z,3.75
2023-01-17T23:25:19.622Z,4.22
2023-01-17T23:27:55.003Z,4.57
2023-01-17T23:29:56.685Z,4.60
2023-01-17T23:32:01.032Z,3.15
2023-01-17T23:34:02.486Z,3.30
2023-01-17T23:36:04.174Z,3.67
2023-01-17T23:38:24.598Z,3.85
2023-01-17T23:40:26.237Z,4.57
2023-01-17T23:42:46.469Z,4.32
2023-01-17T23:44:53.944Z,4.20
2023-01-17T23:46:59.564Z,3.95
2023-01-17T23:49:01.218Z,5.43
2023-01-17T23:51:08.484Z,3.88
2023-01-17T23:53:22.271Z,6.13
2023-01-17T23:55:26.504Z,6.03
2023-01-17T23:57:27.962Z,5.68
2023-01-17T23:59:29.597Z,5.22
